createdAt,value
2022-11-16T00:00:02.904Z,8.46
2022-11-16T00:05:11.100Z,8.37
2022-11-16T00:10:23.674Z,8.37
2022-11-16T00:15:35.866Z,8.43
2022-11-16T00:20:48.421Z,8.46
2022-11-16T00:26:00.703Z,8.48
2022-11-16T00:31:13.030Z,8.52
2022-11-16T00:36:25.445Z,8.55
2022-11-16T00:41:37.743Z,8.51
2022-11-16T00:46:50.088Z,8.49
2022-11-16T00:52:02.433Z,8.43
2022-11-16T00:57:15.163Z,8.39
2022-11-16T01:02:27.438Z,8.33
2022-11-16T01:07:39.862Z,8.26
2022-11-16T01:12:52.155Z,8.21
2022-11-16T01:18:04.400Z,8.13
2022-11-16T01:23:16.741Z,8.11
2022-11-16T01:28:29.214Z,8.1
2022-11-16T01:33:41.512Z,8.09
2022-11-16T01:38:53.953Z,8.08
2022-11-16T01:44:06.355Z,8.03
2022-11-16T01:49:18.779Z,8.04
2022-11-16T01:54:30.991Z,8.01
2022-11-16T01:59:43.491Z,7.99
2022-11-16T02:04:55.867Z,7.93
2022-11-16T02:10:08.285Z,7.84
2022-11-16T02:15:20.536Z,7.77
2022-11-16T02:20:32.834Z,7.75
2022-11-16T02:25:45.159Z,7.72
2022-11-16T02:30:57.606Z,7.73
2022-11-16T02:36:09.783Z,7.65
2022-11-16T02:41:22.119Z,7.59
2022-11-16T02:46:34.691Z,7.56
2022-11-16T02:51:46.976Z,7.57
2022-11-16T02:56:59.605Z,7.59
2022-11-16T03:02:12.095Z,7.6
2022-11-16T03:07:24.497Z,7.57
2022-11-16T03:12:36.680Z,7.44
2022-11-16T03:17:49.047Z,7.39
2022-11-16T03:23:01.117Z,7.33
2022-11-16T03:28:13.316Z,7.29
2022-11-16T03:33:25.801Z,7.26
2022-11-16T03:38:38.192Z,7.26
2022-11-16T03:43:50.600Z,7.22
2022-11-16T03:49:02.902Z,7.21
2022-11-16T03:54:15.261Z,7.18
2022-11-16T03:59:27.597Z,7.17
2022-11-16T04:04:39.711Z,7.2
2022-11-16T04:09:52.308Z,7.19
2022-11-16T04:15:04.657Z,7.22
2022-11-16T04:20:16.904Z,7.24
2022-11-16T04:25:29.096Z,7.22
2022-11-16T04:30:41.525Z,7.22
2022-11-16T04:35:53.927Z,7.24
2022-11-16T04:41:06.470Z,7.3
2022-11-16T04:46:18.903Z,7.34
2022-11-16T04:51:31.250Z,7.39
2022-11-16T04:56:43.675Z,7.38
2022-11-16T05:01:56.274Z,7.42
2022-11-16T05:07:08.749Z,7.46
2022-11-16T05:12:21.038Z,7.49
2022-11-16T05:17:33.360Z,7.47
2022-11-16T05:22:45.804Z,7.47
2022-11-16T05:27:58.211Z,7.49
2022-11-16T05:33:10.456Z,7.52
2022-11-16T05:38:22.795Z,7.54
2022-11-16T05:43:35.187Z,7.58
2022-11-16T05:48:47.506Z,7.58
2022-11-16T05:54:00.211Z,7.56
2022-11-16T05:59:16.411Z,7.55
2022-11-16T06:04:25.115Z,7.6
2022-11-16T06:09:37.300Z,7.64
2022-11-16T06:14:49.616Z,7.65
2022-11-16T06:20:03.853Z,7.68
2022-11-16T06:25:14.245Z,7.73
2022-11-16T06:30:26.447Z,7.75
2022-11-16T06:35:38.930Z,7.76
2022-11-16T06:40:51.101Z,7.79
2022-11-16T06:46:03.433Z,7.8
2022-11-16T06:51:15.860Z,7.81
2022-11-16T06:56:28.008Z,7.84
2022-11-16T07:01:40.401Z,7.89
2022-11-16T07:06:52.985Z,7.9
2022-11-16T07:12:05.213Z,7.95
2022-11-16T07:17:17.709Z,7.98
2022-11-16T07:22:30.872Z,7.98
2022-11-16T07:27:42.460Z,7.97
2022-11-16T07:32:54.548Z,7.98
2022-11-16T07:38:07.106Z,8
2022-11-16T07:43:19.428Z,8.03
2022-11-16T07:48:31.958Z,8.05
2022-11-16T07:53:44.012Z,8.02
2022-11-16T07:58:56.398Z,8.02
2022-11-16T08:04:08.734Z,8
2022-11-16T08:09:21.074Z,8.02
2022-11-16T08:14:33.371Z,7.98
2022-11-16T08:19:45.708Z,7.96
2022-11-16T08:24:58.143Z,7.96
2022-11-16T08:30:10.367Z,7.98
2022-11-16T08:35:22.766Z,7.98
2022-11-16T08:40:35.134Z,7.96
2022-11-16T08:45:47.426Z,7.98
2022-11-16T08:51:16.755Z,8.01
2022-11-16T08:56:12.420Z,7.99
2022-11-16T09:01:24.646Z,7.97
2022-11-16T09:06:36.791Z,7.97
2022-11-16T09:11:49.264Z,8
2022-11-16T09:17:01.550Z,8
2022-11-16T09:22:13.872Z,8.06
2022-11-16T09:27:26.314Z,8.1
2022-11-16T09:32:38.472Z,8.14
2022-11-16T09:37:50.954Z,8.13
2022-11-16T09:43:03.235Z,8.11
2022-11-16T09:48:15.589Z,8.11
2022-11-16T09:53:27.829Z,8.11
2022-11-16T09:58:40.256Z,8.14
2022-11-16T10:03:52.468Z,8.16
2022-11-16T10:09:04.745Z,8.13
2022-11-16T10:14:17.026Z,8.16
2022-11-16T10:19:29.314Z,8.15
2022-11-16T10:24:41.632Z,8.21
2022-11-16T10:29:54.016Z,8.22
2022-11-16T10:35:06.488Z,8.25
2022-11-16T10:40:18.737Z,8.24
2022-11-16T10:45:31.188Z,8.17
2022-11-16T10:50:43.587Z,8.12
2022-11-16T10:55:55.817Z,8.12
2022-11-16T11:01:08.440Z,8.21
2022-11-16T11:06:20.558Z,8.23
2022-11-16T11:11:32.710Z,8.19
2022-11-16T11:16:45.200Z,8.13
2022-11-16T11:21:57.320Z,8.07
2022-11-16T11:27:09.652Z,8.1
2022-11-16T11:32:24.333Z,8.11
2022-11-16T11:37:34.119Z,8.12
2022-11-16T11:42:46.500Z,8.09
2022-11-16T11:47:59.927Z,8.06
2022-11-16T11:53:11.340Z,8.06
2022-11-16T11:58:23.871Z,8.05
2022-11-16T12:03:36.499Z,8.02
2022-11-16T12:08:48.413Z,8.06
2022-11-16T12:14:00.744Z,8.13
2022-11-16T12:19:13.081Z,8.09
2022-11-16T12:24:26.475Z,8.13
2022-11-16T12:29:38.946Z,8.14
2022-11-16T12:34:51.492Z,8.13
2022-11-16T12:40:03.444Z,8.11
2022-11-16T12:45:15.709Z,8.09
2022-11-16T12:50:28.040Z,8.05
2022-11-16T12:55:40.363Z,8.02
2022-11-16T13:00:52.692Z,8
2022-11-16T13:06:04.925Z,8.01
2022-11-16T13:11:17.326Z,8.04
2022-11-16T13:16:29.855Z,8.06
2022-11-16T13:21:42.215Z,8.06
2022-11-16T13:26:54.487Z,8.04
2022-11-16T13:32:06.793Z,8.08
2022-11-16T13:37:19.584Z,8.1
2022-11-16T13:42:31.748Z,8.09
2022-11-16T13:47:44.097Z,8.12
2022-11-16T13:53:41.134Z,8.15
2022-11-16T13:58:08.853Z,8.14
2022-11-16T14:03:21.188Z,8.12
2022-11-16T14:08:33.684Z,8.14
2022-11-16T14:13:46.023Z,8.13
2022-11-16T14:18:58.261Z,8.13
2022-11-16T14:24:10.743Z,8.13
2022-11-16T14:29:22.985Z,8.16
2022-11-16T14:34:35.301Z,8.17
2022-11-16T14:39:47.798Z,8.15
2022-11-16T14:45:00.155Z,8.17
2022-11-16T14:50:12.482Z,8.18
2022-11-16T14:55:25.343Z,8.17
2022-11-16T15:00:37.634Z,8.14
2022-11-16T15:05:49.869Z,8.14
2022-11-16T15:11:02.249Z,8.15
2022-11-16T15:16:14.876Z,8.11
2022-11-16T15:21:26.987Z,8.11
2022-11-16T15:26:39.264Z,8.06
2022-11-16T15:31:51.890Z,8.05
2022-11-16T15:37:04.125Z,8.05
2022-11-16T15:42:16.514Z,8.05
2022-11-16T15:47:28.676Z,8.01
2022-11-16T15:52:40.969Z,8
2022-11-16T15:57:53.522Z,7.94
2022-11-16T16:03:05.920Z,7.9
2022-11-16T16:08:18.244Z,7.88
2022-11-16T16:13:30.731Z,7.85
2022-11-16T16:18:43.038Z,7.86
2022-11-16T16:23:55.399Z,7.89
2022-11-16T16:29:07.776Z,7.9
2022-11-16T16:34:20.187Z,7.89
2022-11-16T16:39:32.611Z,7.89
2022-11-16T16:44:45.156Z,7.91
2022-11-16T16:49:57.578Z,7.92
2022-11-16T16:55:09.932Z,7.89
2022-11-16T17:00:22.232Z,7.88
2022-11-16T17:05:34.462Z,7.85
2022-11-16T17:10:46.658Z,7.82
2022-11-16T17:15:58.968Z,7.82
2022-11-16T17:21:11.257Z,7.83
2022-11-16T17:26:23.545Z,7.82
2022-11-16T17:31:35.773Z,7.83
2022-11-16T17:36:48.064Z,7.87
2022-11-16T17:42:00.390Z,7.92
2022-11-16T17:47:12.688Z,7.89
2022-11-16T17:52:24.940Z,7.91
2022-11-16T17:57:37.281Z,7.87
2022-11-16T18:02:49.746Z,7.84
2022-11-16T18:08:02.267Z,7.87
2022-11-16T18:13:14.619Z,7.87
2022-11-16T18:18:27.065Z,7.86
2022-11-16T18:23:39.271Z,7.87
2022-11-16T18:28:52.021Z,7.86
2022-11-16T18:34:09.317Z,7.85
2022-11-16T18:39:16.770Z,7.85
2022-11-16T18:44:29.077Z,7.84
2022-11-16T18:49:41.632Z,7.81
2022-11-16T18:54:53.764Z,7.82
2022-11-16T19:00:06.050Z,7.81
2022-11-16T19:05:18.515Z,7.78
2022-11-16T19:10:30.863Z,7.73
2022-11-16T19:15:43.450Z,7.75
2022-11-16T19:20:56.202Z,7.74
2022-11-16T19:26:08.585Z,7.75
2022-11-16T19:31:20.879Z,7.74
2022-11-16T19:36:33.271Z,7.75
2022-11-16T19:41:50.449Z,7.7
2022-11-16T19:46:57.790Z,7.68
2022-11-16T19:52:10.330Z,7.69
2022-11-16T19:57:22.653Z,7.69
2022-11-16T20:02:35.151Z,7.68
2022-11-16T20:07:47.595Z,7.67
2022-11-16T20:12:59.867Z,7.67
2022-11-16T20:18:12.063Z,7.67
2022-11-16T20:23:24.567Z,7.66
2022-11-16T20:28:36.739Z,7.66
2022-11-16T20:33:49.257Z,7.66
2022-11-16T20:39:01.648Z,7.66
2022-11-16T20:44:16.468Z,7.65
2022-11-16T20:49:25.980Z,7.62
2022-11-16T20:54:38.551Z,7.61
2022-11-16T20:59:50.682Z,7.6
2022-11-16T21:05:03.012Z,7.59
2022-11-16T21:10:15.392Z,7.59
2022-11-16T21:15:27.900Z,7.5
2022-11-16T21:20:40.222Z,7.45
2022-11-16T21:25:52.868Z,7.44
2022-11-16T21:31:05.136Z,7.43
2022-11-16T21:36:17.392Z,7.33
2022-11-16T21:41:30.024Z,7.31
2022-11-16T21:46:42.238Z,7.27
2022-11-16T21:51:54.345Z,7.25
2022-11-16T21:57:06.901Z,7.24
2022-11-16T22:02:19.418Z,7.23
2022-11-16T22:07:31.905Z,7.17
2022-11-16T22:12:44.297Z,7.13
2022-11-16T22:17:56.796Z,7.04
2022-11-16T22:23:08.988Z,6.98
2022-11-16T22:28:21.593Z,6.98
2022-11-16T22:33:33.783Z,6.95
2022-11-16T22:38:45.679Z,6.94
2022-11-16T22:43:58.015Z,6.9
2022-11-16T22:49:10.208Z,6.9
2022-11-16T22:54:25.920Z,6.9
2022-11-16T22:59:34.462Z,6.9
2022-11-16T23:04:46.873Z,6.88
2022-11-16T23:09:59.161Z,6.82
2022-11-16T23:15:11.798Z,6.82
2022-11-16T23:20:24.135Z,6.77
2022-11-16T23:25:36.466Z,6.74
2022-11-16T23:30:48.820Z,6.7
2022-11-16T23:36:01.224Z,6.7
2022-11-16T23:41:13.386Z,6.64
2022-11-16T23:46:25.871Z,6.57
2022-11-16T23:51:38.048Z,6.47
2022-11-16T23:56:50.520Z,6.35
